Terminal Aerodrome Forecast
Issued by NWS Indianapolis, IN

Home | Current Version | Previous Version | Text Only | Print | Product List | Glossary On
Versions: 1 2 3 4 5 6 7 8 9 10 11 12 13 14 15 16 17 18 19 20 21 22 23 24 25 26 27 28 29 30 31 32
000
FTUS43 KIND 270800 AAA
TAFIND
TAF AMD
KIND 270824Z 2708/2812 VRB03KT 6SM -SN BR SCT007 OVC015
      TEMPO 2708/2712 3SM -SN BR OVC007
     FM271300 04006KT P6SM OVC015
     FM271600 02007KT P6SM SCT025 BKN050
     FM272000 35007KT P6SM SCT050
     FM280000 VRB05KT P6SM SCT250=

USA.gov is the U.S. government's official web portal to all federal, state and local government web resources and services.